East Providence, RI (02914)

2:41 PM EST on December 08, 2016 (GMT -0500)
Richmond Square | | Change Station

Elev 18 ft 41.83 °N, 71.38 °W | Updated 12 minutes ago

Overcast
Overcast
43.2 °F
Feels Like 43 °F
N
2.0
Wind Variable Wind from West
Gusts 9.0 mph

Today
High -- | Low -- °F
--% Chance of Precip.
Yesterday
High -- | Low -- °F
Precip. -- in
Pressure 29.81 in
Visibility 10.0 miles
Clouds Few 2500 ft
Overcast 7000 ft
Windchill 43 °F
Dew Point 32 °F
Humidity 66%
Rainfall 0.00 in
Snow Depth Not available.
7:00 AM 4:14 PM
Waxing Gibbous, 66% visible
METAR KPVD 081851Z 28008KT 10SM FEW025 OVC070 06/M01 A2981 RMK AO2 SLP095 T00561011
Pressure 29.81 in
Visibility 10.0 miles
Clouds Few 2500 ft
Overcast 7000 ft
Windchill 43 °F
Dew Point 32 °F
Humidity 66%
Rainfall 0.00 in
Snow Depth Not available.
7:00 AM 4:14 PM
Waxing Gibbous, 66% visible
METAR KPVD 081851Z 28008KT 10SM FEW025 OVC070 06/M01 A2981 RMK AO2 SLP095 T00561011

10-Day Weather Forecast

Almanac

Astronomy

Dec. 08, 2016 Rise Set
Actual Time
Civil Twilight
Nautical Twilight
Astronomical Twilight
Moon
Length of Visible Light
Length of Day
Tomorrow will be .
, % of the Moon is Illuminated

Today's Extremes

State Highs State Lows

Community

WunderPhotos

Upload Photos

1,956,277 photos uploaded!

WunderBlog® & News

Nearby

Air Quality

  Air Quality AQ Index Pollutant
Not available.

Snow Depth

Station Depth Elevation

Earthquake Activity

City Distance Mag. Time & Date
Minimum magnitude displayed is 2.5.

Coastal Water Temperatures

Place Temperature

Stations

Nearby Weather Stations

Station Location Temp. Windchill Dew Point Humidity Wind Precip. Elev Updated Type
                   

Watches & Warnings

There are currently no watches in effect.